Time;durP1;ratioP1;P1;durP2;ratioP2;P2;SDS_P1;SDS_P2;PMS_P1;PMS_P2;Temp;Humidity;BMP_temperature;BMP_pressure;BME280_temperature;BME280_humidity;BME280_pressure;Samples;Min_cycle;Max_cycle;Signal;HPM_P1;HPM_P2
2022/10/28 00:00:24;;;;;;;6.53;3.53;;;;;17.50;101183.00;;;;10289429;28;20575;-77
2022/10/28 00:05:27;;;;;;;9.82;4.50;;;;;17.50;101173.00;;;;10330574;28;20236;-77
2022/10/28 00:10:29;;;;;;;6.05;3.20;;;;;17.40;101167.00;;;;10313576;28;20204;-77
2022/10/28 00:15:34;;;;;;;18.42;4.60;;;;;17.40;101167.00;;;;10322081;28;20239;-77
2022/10/28 00:20:36;;;;;;;10.60;3.40;;;;;17.40;101153.00;;;;10281641;28;20698;-77
2022/10/28 00:25:38;;;;;;;8.05;3.88;;;;;17.30;101159.00;;;;10302442;28;20245;-77
2022/10/28 00:30:39;;;;;;;8.23;3.72;;;;;17.20;101157.00;;;;10320725;28;20197;-76
2022/10/28 00:35:41;;;;;;;11.52;4.40;;;;;17.10;101155.00;;;;10291319;28;20288;-77
2022/10/28 00:40:43;;;;;;;9.40;3.63;;;;;17.00;101161.00;;;;10325502;28;20220;-77
2022/10/28 00:45:45;;;;;;;11.32;3.63;;;;;17.20;101152.00;;;;10295006;28;20196;-77
2022/10/28 00:50:52;;;;;;;6.88;3.20;;;;;17.30;101156.00;;;;10307433;28;20192;-77
2022/10/28 00:55:56;;;;;;;7.47;3.40;;;;;17.30;101144.00;;;;10313128;28;20675;-77
2022/10/28 01:00:58;;;;;;;9.07;4.40;;;;;17.40;101129.00;;;;10289388;28;20208;-77
2022/10/28 01:06:00;;;;;;;9.93;4.60;;;;;17.40;101132.00;;;;10320409;28;20212;-77
2022/10/28 01:11:20;;;;;;;7.85;3.47;;;;;17.30;101138.00;;;;10307597;28;20479;-77
2022/10/28 01:16:34;;;;;;;6.60;3.25;;;;;17.20;101140.00;;;;10296898;28;20192;-76
2022/10/28 01:22:00;;;;;;;10.57;3.33;;;;;17.20;101135.00;;;;10326595;28;20266;-77
2022/10/28 01:27:25;;;;;;;9.73;2.92;;;;;17.30;101140.00;;;;10303268;28;20258;-77
2022/10/28 01:32:44;;;;;;;8.60;3.50;;;;;17.30;101135.00;;;;10317574;28;20239;-77
2022/10/28 01:37:57;;;;;;;7.03;3.45;;;;;17.30;101131.00;;;;10317892;28;20200;-77
2022/10/28 01:43:10;;;;;;;11.55;4.10;;;;;17.20;101128.00;;;;10332863;28;20198;-77
2022/10/28 01:48:20;;;;;;;10.57;3.60;;;;;17.20;101121.00;;;;10317210;28;20239;-77
2022/10/28 01:53:27;;;;;;;10.73;3.65;;;;;17.30;101113.00;;;;10275587;28;20219;-77
2022/10/28 01:58:32;;;;;;;6.65;3.00;;;;;17.30;101116.00;;;;10298276;28;20208;-77
2022/10/28 02:03:34;;;;;;;12.45;4.55;;;;;17.30;101116.00;;;;10317439;28;20197;-77
2022/10/28 02:08:58;;;;;;;13.45;3.50;;;;;17.30;101112.00;;;;10311405;28;20204;-77
2022/10/28 02:14:17;;;;;;;11.02;3.92;;;;;17.20;101115.00;;;;10331952;28;20910;-77
2022/10/28 02:19:26;;;;;;;6.93;3.55;;;;;17.10;101116.00;;;;10317034;28;20216;-77
2022/10/28 02:24:33;;;;;;;14.02;3.78;;;;;17.00;101113.00;;;;10269388;28;20200;-77
2022/10/28 02:29:43;;;;;;;13.50;3.85;;;;;16.80;101120.00;;;;10278935;28;20600;-77
2022/10/28 02:34:49;;;;;;;10.40;3.75;;;;;16.70;101127.00;;;;10299669;28;20227;-77
2022/10/28 02:39:55;;;;;;;13.10;3.92;;;;;16.50;101133.00;;;;10307494;28;20211;-77
2022/10/28 02:45:05;;;;;;;10.65;3.53;;;;;16.30;101133.00;;;;10303713;28;20262;-77
2022/10/28 02:50:11;;;;;;;7.85;3.90;;;;;16.20;101121.00;;;;10302244;28;20195;-76
2022/10/28 02:55:13;;;;;;;9.60;3.75;;;;;16.00;101125.00;;;;10323328;28;20208;-77
2022/10/28 03:00:23;;;;;;;13.02;3.50;;;;;15.90;101117.00;;;;10308845;28;20263;-77
2022/10/28 03:05:25;;;;;;;8.27;4.10;;;;;16.00;101113.00;;;;10306550;28;20579;-76
2022/10/28 03:10:27;;;;;;;13.60;3.90;;;;;16.10;101115.00;;;;10318829;28;20193;-77
2022/10/28 03:15:29;;;;;;;9.30;3.88;;;;;16.20;101124.00;;;;10313977;28;20210;-77
2022/10/28 03:20:31;;;;;;;9.38;4.00;;;;;16.20;101109.00;;;;10300850;28;20208;-77
2022/10/28 03:25:33;;;;;;;8.25;4.07;;;;;16.30;101112.00;;;;10316969;28;20207;-76
2022/10/28 03:30:34;;;;;;;7.25;3.40;;;;;16.30;101104.00;;;;10324695;28;20216;-77
2022/10/28 03:35:36;;;;;;;13.57;4.00;;;;;16.40;101109.00;;;;10304706;28;20208;-77
2022/10/28 03:40:38;;;;;;;9.13;3.75;;;;;16.60;101105.00;;;;10304659;28;20646;-77
2022/10/28 03:45:40;;;;;;;8.50;4.28;;;;;16.60;101111.00;;;;10304289;28;20199;-76
2022/10/28 03:50:42;;;;;;;9.38;4.22;;;;;16.50;101096.00;;;;10309676;28;20203;-77
2022/10/28 03:55:51;;;;;;;8.18;3.08;;;;;16.50;101100.00;;;;10279147;28;20227;-77
2022/10/28 04:00:53;;;;;;;8.75;3.67;;;;;16.40;101099.00;;;;10280309;28;20666;-77
2022/10/28 04:05:55;;;;;;;9.15;3.83;;;;;16.50;101108.00;;;;10287620;28;20219;-77
2022/10/28 04:10:57;;;;;;;11.93;3.92;;;;;16.40;101092.00;;;;10286346;28;20200;-77
2022/10/28 04:16:00;;;;;;;8.68;3.55;;;;;16.40;101096.00;;;;10263346;28;20222;-77
2022/10/28 04:21:03;;;;;;;7.68;3.78;;;;;16.40;101086.00;;;;10280430;28;20730;-77
2022/10/28 04:26:05;;;;;;;8.60;3.67;;;;;16.40;101088.00;;;;10326803;28;20189;-77
2022/10/28 04:31:06;;;;;;;9.77;3.85;;;;;16.30;101107.00;;;;10307070;28;20651;-77
2022/10/28 04:36:08;;;;;;;14.15;4.78;;;;;16.40;101093.00;;;;10302551;28;20196;-77
2022/10/28 04:41:13;;;;;;;8.25;4.35;;;;;16.40;101099.00;;;;10318871;28;20208;-77
2022/10/28 04:46:15;;;;;;;10.57;4.07;;;;;16.40;101085.00;;;;10299983;28;20189;-77
2022/10/28 04:51:17;;;;;;;9.57;4.10;;;;;16.30;101080.00;;;;10311997;28;20649;-76
2022/10/28 04:56:19;;;;;;;11.32;4.53;;;;;16.30;101083.00;;;;10297985;28;20232;-77
2022/10/28 05:01:20;;;;;;;14.32;4.88;;;;;16.20;101089.00;;;;10299365;28;20216;-77
2022/10/28 05:06:22;;;;;;;11.80;4.47;;;;;16.20;101092.00;;;;10272222;28;20738;-77
2022/10/28 05:11:24;;;;;;;7.40;3.83;;;;;16.10;101084.00;;;;10327961;28;20246;-77
2022/10/28 05:16:26;;;;;;;16.23;4.60;;;;;16.10;101085.00;;;;10327802;28;20247;-77
2022/10/28 05:21:28;;;;;;;13.32;4.97;;;;;16.20;101081.00;;;;10337522;28;20992;-77
2022/10/28 05:26:30;;;;;;;11.73;4.70;;;;;16.20;101086.00;;;;10299747;28;20206;-77
2022/10/28 05:31:33;;;;;;;14.93;6.00;;;;;16.10;101086.00;;;;10305363;28;20271;-77
2022/10/28 05:36:35;;;;;;;10.93;4.25;;;;;16.10;101080.00;;;;10316236;28;20194;-77
2022/10/28 05:41:37;;;;;;;19.40;5.28;;;;;16.20;101078.00;;;;10279403;28;20251;-77
2022/10/28 05:46:39;;;;;;;14.90;5.50;;;;;16.10;101073.00;;;;10330459;28;20619;-77
2022/10/28 05:51:41;;;;;;;10.43;5.53;;;;;16.10;101081.00;;;;10311635;28;20192;-77
2022/10/28 05:56:43;;;;;;;11.52;5.30;;;;;16.10;101058.00;;;;10310044;28;20208;-76
2022/10/28 06:01:45;;;;;;;15.10;5.68;;;;;16.20;101055.00;;;;10320187;28;20698;-77
2022/10/28 06:06:47;;;;;;;12.77;5.72;;;;;16.20;101061.00;;;;10345402;28;20216;-77
2022/10/28 06:11:49;;;;;;;15.90;6.63;;;;;16.30;101072.00;;;;10314666;28;20199;-76
2022/10/28 06:16:50;;;;;;;10.10;4.70;;;;;16.20;101069.00;;;;10323952;28;20187;-77
2022/10/28 06:21:52;;;;;;;7.95;5.07;;;;;16.20;101064.00;;;;10333669;28;20693;-77
2022/10/28 06:26:54;;;;;;;19.02;5.80;;;;;16.10;101076.00;;;;10299649;28;20203;-77
2022/10/28 06:31:56;;;;;;;10.00;5.32;;;;;16.10;101085.00;;;;10310739;28;20198;-77
2022/10/28 06:36:58;;;;;;;12.77;4.90;;;;;16.20;101093.00;;;;10286362;28;20482;-77
2022/10/28 06:42:00;;;;;;;9.80;4.20;;;;;16.20;101082.00;;;;10312770;28;20214;-77
2022/10/28 06:47:02;;;;;;;12.65;4.50;;;;;16.40;101084.00;;;;10279918;28;20668;-77
2022/10/28 06:52:04;;;;;;;11.23;5.05;;;;;16.60;101079.00;;;;10303560;28;20204;-76
2022/10/28 06:57:05;;;;;;;11.23;4.50;;;;;16.90;101070.00;;;;10299324;28;20771;-76
2022/10/28 07:02:10;;;;;;;11.10;4.20;;;;;17.00;101064.00;;;;10303507;28;20200;-77
2022/10/28 07:07:12;;;;;;;11.85;4.63;;;;;17.10;101074.00;;;;10283984;28;20395;-76
2022/10/28 07:12:14;;;;;;;13.32;4.45;;;;;17.30;101086.00;;;;10282166;28;20183;-77
2022/10/28 07:17:16;;;;;;;7.57;3.80;;;;;17.50;101099.00;;;;10302205;28;20557;-77
2022/10/28 07:22:18;;;;;;;11.75;5.72;;;;;17.60;101095.00;;;;10285803;28;20216;-77
2022/10/28 07:27:26;;;;;;;12.02;3.97;;;;;17.90;101103.00;;;;10289417;28;20203;-77
2022/10/28 07:32:31;;;;;;;15.38;4.07;;;;;18.00;101112.00;;;;10291429;28;20181;-77
2022/10/28 07:37:33;;;;;;;9.93;4.18;;;;;18.20;101117.00;;;;10304886;28;20566;-77
2022/10/28 07:42:35;;;;;;;8.90;3.75;;;;;18.40;101119.00;;;;10336877;28;20212;-77
2022/10/28 07:47:37;;;;;;;12.70;4.13;;;;;18.60;101116.00;;;;10298103;28;20201;-78
2022/10/28 07:52:39;;;;;;;9.43;3.70;;;;;18.70;101126.00;;;;10305420;28;20203;-78
2022/10/28 07:57:41;;;;;;;9.07;3.97;;;;;18.90;101117.00;;;;10326896;28;20195;-77
2022/10/28 08:02:43;;;;;;;7.20;3.67;;;;;19.00;101123.00;;;;10317596;28;20207;-78
2022/10/28 08:07:46;;;;;;;18.55;4.05;;;;;19.20;101116.00;;;;10323654;28;20212;-77
2022/10/28 08:12:48;;;;;;;10.50;4.20;;;;;19.40;101120.00;;;;10322002;28;20195;-77
2022/10/28 08:17:51;;;;;;;11.35;3.80;;;;;19.70;101130.00;;;;10339378;28;20790;-77
2022/10/28 08:22:53;;;;;;;13.73;4.75;;;;;19.80;101127.00;;;;10276675;28;20267;-78
2022/10/28 08:27:56;;;;;;;13.65;4.05;;;;;19.80;101135.00;;;;10327838;28;20280;-77
2022/10/28 08:32:58;;;;;;;9.38;3.70;;;;;19.80;101137.00;;;;10295034;28;20533;-77
2022/10/28 08:38:00;;;;;;;12.13;4.07;;;;;20.00;101122.00;;;;10312866;28;20268;-77
2022/10/28 08:43:13;;;;;;;12.45;4.25;;;;;20.20;101134.00;;;;10276777;28;20211;-77
2022/10/28 08:48:35;;;;;;;14.93;3.92;;;;;20.10;101138.00;;;;10307678;28;20203;-77
2022/10/28 08:53:43;;;;;;;10.02;3.65;;;;;19.90;101139.00;;;;10307041;28;20689;-77
2022/10/28 08:58:46;;;;;;;17.33;4.47;;;;;19.80;101129.00;;;;10319792;28;20198;-77
2022/10/28 09:03:52;;;;;;;15.80;4.35;;;;;20.20;101129.00;;;;10317739;28;20205;-77
2022/10/28 09:08:56;;;;;;;13.00;4.85;;;;;20.80;101131.00;;;;10314439;28;20753;-77
2022/10/28 09:14:10;;;;;;;10.73;4.20;;;;;21.30;101126.00;;;;10294086;28;20701;-77
2022/10/28 09:19:24;;;;;;;15.45;5.40;;;;;21.80;101127.00;;;;10310821;28;20196;-77
2022/10/28 09:24:44;;;;;;;12.60;4.97;;;;;22.20;101149.00;;;;10299864;28;20201;-77
2022/10/28 09:29:51;;;;;;;14.38;4.68;;;;;22.10;101151.00;;;;10302093;28;20188;-77
2022/10/28 09:35:10;;;;;;;16.15;5.18;;;;;22.40;101164.00;;;;10295448;28;20295;-77
2022/10/28 09:40:12;;;;;;;12.70;3.85;;;;;22.70;101168.00;;;;10294794;28;20207;-77
2022/10/28 09:45:25;;;;;;;12.93;4.00;;;;;22.90;101169.00;;;;10309633;28;20196;-77
2022/10/28 09:50:29;;;;;;;10.50;3.33;;;;;23.10;101156.00;;;;10289433;28;20281;-76
2022/10/28 09:55:31;;;;;;;10.57;4.13;;;;;23.30;101145.00;;;;10338229;28;20207;-77
2022/10/28 10:00:33;;;;;;;14.27;3.58;;;;;23.40;101154.00;;;;10339556;28;20212;-77
2022/10/28 10:05:43;;;;;;;12.27;4.07;;;;;23.60;101135.00;;;;10296714;28;20207;-77
2022/10/28 10:11:06;;;;;;;13.27;3.88;;;;;23.90;101142.00;;;;10324738;28;20248;-78
2022/10/28 10:16:20;;;;;;;13.13;4.20;;;;;24.20;101144.00;;;;10304133;28;20192;-78
2022/10/28 10:21:42;;;;;;;10.85;4.15;;;;;25.00;101163.00;;;;10317473;28;20247;-77
2022/10/28 10:26:43;;;;;;;12.93;4.78;;;;;25.20;101164.00;;;;10302433;28;20218;-78
2022/10/28 10:31:46;;;;;;;9.43;2.90;;;;;24.90;101163.00;;;;10306416;28;20571;-77
2022/10/28 10:36:52;;;;;;;11.10;3.08;;;;;25.50;101151.00;;;;10306882;28;20240;-77
2022/10/28 10:41:54;;;;;;;12.05;3.42;;;;;25.60;101159.00;;;;10318664;28;20234;-77
2022/10/28 10:46:59;;;;;;;11.77;2.92;;;;;25.70;101146.00;;;;10300880;28;20254;-77
2022/10/28 10:52:18;;;;;;;12.77;3.60;;;;;25.80;101154.00;;;;10304323;28;20193;-78
2022/10/28 10:57:21;;;;;;;14.13;3.85;;;;;26.10;101154.00;;;;10322908;28;20195;-78
2022/10/28 11:02:38;;;;;;;20.90;5.15;;;;;26.10;101159.00;;;;10319738;28;20216;-78
2022/10/28 11:07:48;;;;;;;11.65;2.80;;;;;26.00;101161.00;;;;10303166;28;20220;-78
2022/10/28 11:13:04;;;;;;;17.25;4.10;;;;;26.10;101177.00;;;;10335774;28;20275;-77
2022/10/28 11:18:20;;;;;;;8.95;3.30;;;;;25.90;101181.00;;;;10253796;28;20366;-77
2022/10/28 11:23:37;;;;;;;13.77;3.60;;;;;26.00;101181.00;;;;10314092;28;20204;-77
2022/10/28 11:28:58;;;;;;;7.90;3.05;;;;;26.00;101170.00;;;;10301920;28;20204;-77
2022/10/28 11:34:18;;;;;;;8.27;3.90;;;;;25.70;101175.00;;;;10313409;28;20284;-77
2022/10/28 11:39:42;;;;;;;11.73;3.63;;;;;25.80;101185.00;;;;10328522;28;20192;-77
2022/10/28 11:44:58;;;;;;;8.63;3.20;;;;;25.90;101176.00;;;;10313368;28;20247;-77
2022/10/28 11:50:29;;;;;;;10.93;3.10;;;;;26.20;101179.00;;;;10323570;28;20202;-77
2022/10/28 11:55:33;;;;;;;10.73;3.03;;;;;26.60;101191.00;;;;10309872;28;20680;-77
2022/10/28 12:00:57;;;;;;;12.38;3.33;;;;;26.50;101196.00;;;;10305407;28;20615;-77
2022/10/28 12:06:13;;;;;;;6.63;3.30;;;;;25.90;101199.00;;;;10284404;28;20221;-77
2022/10/28 12:11:31;;;;;;;6.60;3.10;;;;;25.80;101191.00;;;;10304242;28;20903;-77
2022/10/28 12:17:05;;;;;;;13.27;3.20;;;;;25.10;101199.00;;;;10305638;28;20206;-77
2022/10/28 12:22:33;;;;;;;15.07;2.92;;;;;24.50;101201.00;;;;10310800;28;20239;-77
2022/10/28 12:27:40;;;;;;;14.63;2.80;;;;;24.30;101212.00;;;;10290906;28;20197;-77
2022/10/28 12:32:43;;;;;;;8.00;3.00;;;;;24.30;101202.00;;;;10327830;28;20295;-77
2022/10/28 12:38:09;;;;;;;8.82;3.20;;;;;24.40;101219.00;;;;10300133;28;20196;-77
2022/10/28 12:43:19;;;;;;;11.57;3.70;;;;;24.70;101227.00;;;;10310880;28;20197;-77
2022/10/28 12:48:39;;;;;;;12.15;3.65;;;;;24.90;101231.00;;;;10301868;28;20216;-77
2022/10/28 12:53:59;;;;;;;10.20;3.70;;;;;25.10;101238.00;;;;10301947;28;20968;-77
2022/10/28 12:59:30;;;;;;;14.43;3.38;;;;;25.20;101241.00;;;;10291576;28;20195;-77
2022/10/28 13:04:32;;;;;;;14.73;3.65;;;;;25.10;101244.00;;;;10297908;28;20224;-77
2022/10/28 13:10:12;;;;;;;11.20;3.00;;;;;25.10;101243.00;;;;10321899;28;20248;-77
2022/10/28 13:15:24;;;;;;;15.30;4.43;;;;;25.20;101254.00;;;;10328964;28;20196;-77
2022/10/28 13:20:43;;;;;;;10.05;3.17;;;;;25.00;101266.00;;;;10318280;28;20204;-77
2022/10/28 13:25:51;;;;;;;8.57;3.58;;;;;24.80;101259.00;;;;10283141;28;20199;-77
2022/10/28 13:30:57;;;;;;;6.85;2.63;;;;;24.80;101258.00;;;;10299374;28;20192;-77
2022/10/28 13:36:35;;;;;;;10.07;3.58;;;;;24.70;101256.00;;;;10309698;28;20730;-77
2022/10/28 13:41:40;;;;;;;7.72;3.05;;;;;24.30;101254.00;;;;10309932;28;20365;-77
2022/10/28 13:46:58;;;;;;;10.48;3.22;;;;;24.00;101265.00;;;;10295501;28;20215;-77
2022/10/28 13:52:02;;;;;;;10.82;2.65;;;;;24.30;101278.00;;;;10312974;28;20184;-77
2022/10/28 13:57:25;;;;;;;8.15;2.83;;;;;24.70;101273.00;;;;10329692;28;20212;-77
2022/10/28 14:02:36;;;;;;;10.38;3.28;;;;;24.80;101282.00;;;;10281158;28;20243;-78
2022/10/28 14:08:03;;;;;;;9.57;3.05;;;;;24.90;101271.00;;;;10307883;28;20258;-77
2022/10/28 14:13:17;;;;;;;11.68;2.95;;;;;25.00;101288.00;;;;10328149;28;20215;-76
2022/10/28 14:18:22;;;;;;;9.38;2.85;;;;;24.90;101276.00;;;;10323617;28;20544;-78
2022/10/28 14:24:05;;;;;;;4.95;2.92;;;;;24.60;101287.00;;;;10321958;28;20220;-78
2022/10/28 14:29:26;;;;;;;7.82;3.03;;;;;24.50;101302.00;;;;10305664;28;20192;-77
2022/10/28 14:34:38;;;;;;;7.78;2.85;;;;;24.00;101308.00;;;;10323261;28;20195;-77
2022/10/28 14:39:55;;;;;;;6.57;2.63;;;;;23.70;101295.00;;;;10317469;28;20196;-77
2022/10/28 14:45:00;;;;;;;11.23;3.40;;;;;23.40;101293.00;;;;10301958;28;20192;-77
2022/10/28 14:50:13;;;;;;;10.57;3.22;;;;;23.40;101315.00;;;;10311073;28;20457;-77
2022/10/28 14:55:25;;;;;;;7.13;2.90;;;;;23.90;101308.00;;;;10323269;28;20205;-77
2022/10/28 15:00:37;;;;;;;8.50;2.95;;;;;24.20;101308.00;;;;10295226;28;20212;-77
2022/10/28 15:05:39;;;;;;;10.85;3.53;;;;;23.90;101312.00;;;;10304829;28;20216;-77
2022/10/28 15:10:47;;;;;;;9.80;3.65;;;;;23.30;101312.00;;;;10317147;28;20320;-77
2022/10/28 15:15:54;;;;;;;10.00;3.63;;;;;22.70;101319.00;;;;10297972;28;20192;-77
2022/10/28 15:21:14;;;;;;;9.30;3.45;;;;;22.30;101334.00;;;;10287105;28;20220;-77
2022/10/28 15:26:16;;;;;;;10.93;4.15;;;;;21.90;101325.00;;;;10280341;28;20214;-77
2022/10/28 15:31:18;;;;;;;14.40;3.25;;;;;21.70;101337.00;;;;10310507;28;20651;-78
2022/10/28 15:36:23;;;;;;;7.65;2.97;;;;;21.50;101341.00;;;;10310911;28;20192;-78
2022/10/28 15:41:28;;;;;;;10.27;3.75;;;;;21.30;101361.00;;;;10296175;28;20208;-78
2022/10/28 15:46:32;;;;;;;6.78;3.58;;;;;21.20;101363.00;;;;10295927;28;20180;-78
2022/10/28 15:51:34;;;;;;;9.57;3.92;;;;;21.00;101367.00;;;;10288011;28;20950;-78
2022/10/28 15:56:57;;;;;;;17.00;3.58;;;;;20.90;101359.00;;;;10291958;28;20204;-77
2022/10/28 16:02:00;;;;;;;7.43;3.50;;;;;20.80;101375.00;;;;10328231;28;20200;-77
2022/10/28 16:07:06;;;;;;;13.57;3.70;;;;;20.60;101380.00;;;;10318561;28;20212;-77
2022/10/28 16:12:26;;;;;;;8.43;3.30;;;;;20.50;101373.00;;;;10311895;28;20660;-77
2022/10/28 16:17:32;;;;;;;9.93;3.38;;;;;20.30;101380.00;;;;10296281;28;20327;-77
2022/10/28 16:22:35;;;;;;;19.02;4.82;;;;;20.00;101385.00;;;;10323802;28;20540;-77
2022/10/28 16:27:37;;;;;;;11.68;4.32;;;;;19.90;101384.00;;;;10319485;28;20192;-77
2022/10/28 16:32:49;;;;;;;10.75;4.25;;;;;19.60;101389.00;;;;10292002;28;20196;-77
2022/10/28 16:37:51;;;;;;;13.77;4.55;;;;;19.40;101402.00;;;;10317778;28;20306;-77
2022/10/28 16:42:56;;;;;;;10.57;3.92;;;;;19.30;101404.00;;;;10275679;28;20721;-78
2022/10/28 16:48:01;;;;;;;12.75;4.30;;;;;19.20;101421.00;;;;10311390;28;20722;-77
2022/10/28 16:53:08;;;;;;;11.18;4.82;;;;;19.10;101424.00;;;;10276165;28;20192;-77
2022/10/28 16:58:10;;;;;;;14.45;4.65;;;;;19.00;101440.00;;;;10277588;28;20278;-77
2022/10/28 17:03:16;;;;;;;11.50;4.18;;;;;18.80;101437.00;;;;10327641;28;20229;-77
2022/10/28 17:08:17;;;;;;;11.77;4.28;;;;;18.60;101435.00;;;;10270723;28;20242;-77
2022/10/28 17:13:39;;;;;;;11.35;4.35;;;;;18.50;101440.00;;;;10296059;28;20184;-77
2022/10/28 17:18:43;;;;;;;10.60;4.05;;;;;18.40;101449.00;;;;10308018;28;20239;-77
2022/10/28 17:23:44;;;;;;;13.02;4.65;;;;;18.40;101447.00;;;;10299874;28;20223;-77
2022/10/28 17:28:51;;;;;;;15.27;5.28;;;;;18.30;101468.00;;;;10290794;28;20196;-76
2022/10/28 17:33:53;;;;;;;14.25;4.60;;;;;18.30;101473.00;;;;10278779;28;20198;-77
2022/10/28 17:38:55;;;;;;;15.02;4.97;;;;;18.20;101481.00;;;;10327025;28;20255;-77
2022/10/28 17:43:57;;;;;;;8.70;4.93;;;;;18.20;101493.00;;;;10326644;28;20705;-77
2022/10/28 17:48:59;;;;;;;14.52;5.25;;;;;18.10;101487.00;;;;10329774;28;20294;-77
2022/10/28 17:54:04;;;;;;;11.80;5.75;;;;;18.10;101494.00;;;;10335573;28;20291;-77
2022/10/28 17:59:06;;;;;;;9.02;4.93;;;;;18.00;101499.00;;;;10328516;28;20196;-77
2022/10/28 18:04:10;;;;;;;13.52;5.10;;;;;17.90;101494.00;;;;10273680;28;20300;-77
2022/10/28 18:09:12;;;;;;;14.60;5.80;;;;;17.80;101495.00;;;;10308688;28;20275;-77
2022/10/28 18:14:16;;;;;;;18.20;5.25;;;;;17.70;101488.00;;;;10293220;28;20197;-77
2022/10/28 18:19:20;;;;;;;16.13;5.88;;;;;17.60;101504.00;;;;10291356;28;20607;-77
2022/10/28 18:24:22;;;;;;;14.60;5.60;;;;;17.60;101495.00;;;;10301963;28;20747;-77
2022/10/28 18:29:27;;;;;;;9.80;4.97;;;;;17.70;101505.00;;;;10313697;28;20575;-77
2022/10/28 18:34:29;;;;;;;9.88;5.05;;;;;17.80;101500.00;;;;10302870;28;20188;-77
2022/10/28 18:39:32;;;;;;;14.07;5.55;;;;;17.70;101500.00;;;;10307463;28;20228;-77
2022/10/28 18:44:35;;;;;;;14.32;6.20;;;;;17.60;101494.00;;;;10311147;28;20614;-77
2022/10/28 18:49:37;;;;;;;11.73;4.95;;;;;17.50;101498.00;;;;10283296;28;20198;-77
2022/10/28 18:54:39;;;;;;;13.40;6.18;;;;;17.50;101520.00;;;;10312781;28;20201;-77
2022/10/28 18:59:41;;;;;;;12.80;6.75;;;;;17.40;101519.00;;;;10300927;28;20396;-77
2022/10/28 19:05:03;;;;;;;19.90;6.72;;;;;17.40;101519.00;;;;10313236;28;20278;-77
2022/10/28 19:10:05;;;;;;;11.85;5.85;;;;;17.30;101535.00;;;;10323265;28;20192;-77
2022/10/28 19:15:08;;;;;;;15.93;6.28;;;;;17.30;101541.00;;;;10285810;28;20518;-77
2022/10/28 19:20:10;;;;;;;13.80;6.38;;;;;17.20;101546.00;;;;10299610;28;20659;-77
2022/10/28 19:25:12;;;;;;;9.02;5.57;;;;;17.00;101551.00;;;;10296289;28;20555;-77
2022/10/28 19:30:14;;;;;;;16.05;6.35;;;;;16.80;101533.00;;;;10326497;28;20224;-77
2022/10/28 19:35:16;;;;;;;12.13;6.10;;;;;16.70;101548.00;;;;10293231;28;20223;-77
2022/10/28 19:40:18;;;;;;;13.32;6.28;;;;;16.50;101555.00;;;;10296195;28;20192;-77
2022/10/28 19:45:20;;;;;;;11.95;5.93;;;;;16.40;101573.00;;;;10309078;28;20203;-77
2022/10/28 19:50:22;;;;;;;12.70;5.82;;;;;16.40;101575.00;;;;10277545;28;20540;-77
2022/10/28 19:55:24;;;;;;;10.20;6.18;;;;;16.40;101575.00;;;;10277349;28;20196;-77
2022/10/28 20:00:25;;;;;;;16.13;5.53;;;;;16.40;101569.00;;;;10296677;28;20193;-77
2022/10/28 20:05:27;;;;;;;15.48;5.82;;;;;16.30;101559.00;;;;10293718;28;20234;-77
2022/10/28 20:10:29;;;;;;;12.93;5.30;;;;;16.30;101573.00;;;;10315543;28;20199;-77
2022/10/28 20:15:31;;;;;;;10.38;5.63;;;;;16.30;101571.00;;;;10325889;28;20196;-77
2022/10/28 20:20:36;;;;;;;9.18;5.45;;;;;16.10;101579.00;;;;10293963;28;20188;-77
2022/10/28 20:25:38;;;;;;;15.55;6.22;;;;;16.00;101575.00;;;;10290845;28;20216;-77
2022/10/28 20:30:41;;;;;;;12.13;6.05;;;;;15.80;101580.00;;;;10277293;28;20188;-77
2022/10/28 20:35:42;;;;;;;12.77;5.80;;;;;15.70;101586.00;;;;10294664;28;20219;-77
2022/10/28 20:40:47;;;;;;;12.10;6.93;;;;;15.60;101592.00;;;;10285889;28;20204;-77
2022/10/28 20:45:54;;;;;;;13.48;6.78;;;;;15.50;101588.00;;;;10298804;28;20242;-77
2022/10/28 20:51:00;;;;;;;13.38;6.53;;;;;15.40;101587.00;;;;10307517;28;20283;-77
2022/10/28 20:56:03;;;;;;;10.55;6.18;;;;;15.30;101594.00;;;;10272975;28;20204;-77
2022/10/28 21:01:07;;;;;;;13.15;6.70;;;;;15.30;101591.00;;;;10290548;28;20282;-77
2022/10/28 21:06:10;;;;;;;13.32;6.70;;;;;15.20;101584.00;;;;10296485;28;20710;-77
2022/10/28 21:11:14;;;;;;;19.67;6.72;;;;;15.20;101592.00;;;;10314846;28;20196;-77
2022/10/28 21:16:16;;;;;;;14.67;7.90;;;;;15.20;101597.00;;;;10312123;28;20674;-77
2022/10/28 21:21:20;;;;;;;10.52;6.93;;;;;15.30;101612.00;;;;10300384;28;20265;-76
2022/10/28 21:26:22;;;;;;;12.20;6.83;;;;;15.30;101615.00;;;;10269986;28;20238;-77
2022/10/28 21:31:24;;;;;;;12.53;6.40;;;;;15.30;101592.00;;;;10259467;28;20192;-77
2022/10/28 21:36:27;;;;;;;11.15;6.22;;;;;15.30;101605.00;;;;10289991;28;20192;-77
2022/10/28 21:41:29;;;;;;;11.60;7.07;;;;;15.30;101600.00;;;;10287230;28;20332;-76
2022/10/28 21:46:30;;;;;;;16.80;8.00;;;;;15.30;101603.00;;;;10305421;28;20381;-77
2022/10/28 21:51:32;;;;;;;14.93;7.32;;;;;15.30;101604.00;;;;10320331;28;20180;-77
2022/10/28 21:56:34;;;;;;;13.38;7.43;;;;;15.30;101606.00;;;;10274646;28;20209;-77
2022/10/28 22:01:36;;;;;;;16.15;7.05;;;;;15.30;101602.00;;;;10299061;28;20212;-77
2022/10/28 22:06:38;;;;;;;14.07;8.03;;;;;15.30;101601.00;;;;10302902;28;20208;-77
2022/10/28 22:11:40;;;;;;;18.13;8.38;;;;;15.30;101617.00;;;;10304114;28;20181;-77
2022/10/28 22:16:42;;;;;;;22.00;10.27;;;;;15.40;101600.00;;;;10315144;28;20193;-77
2022/10/28 22:21:44;;;;;;;21.88;9.82;;;;;15.50;101604.00;;;;10287782;28;20283;-77
2022/10/28 22:26:46;;;;;;;20.08;8.68;;;;;15.70;101618.00;;;;10313379;28;20193;-77
2022/10/28 22:31:48;;;;;;;17.73;8.63;;;;;15.70;101616.00;;;;10314448;28;20644;-77
2022/10/28 22:36:50;;;;;;;18.90;7.50;;;;;15.60;101615.00;;;;10299742;28;20220;-77
2022/10/28 22:41:52;;;;;;;16.48;8.27;;;;;15.60;101593.00;;;;10329697;28;20226;-77
2022/10/28 22:46:54;;;;;;;14.85;8.20;;;;;15.60;101598.00;;;;10298633;28;20223;-77
2022/10/28 22:51:56;;;;;;;14.18;8.15;;;;;15.60;101605.00;;;;10297403;28;20604;-77
2022/10/28 22:56:58;;;;;;;16.88;7.97;;;;;15.60;101608.00;;;;10285085;28;20742;-77
2022/10/28 23:02:00;;;;;;;14.40;8.10;;;;;15.50;101604.00;;;;10283084;28;20255;-77
2022/10/28 23:07:02;;;;;;;17.05;8.35;;;;;15.50;101622.00;;;;10323213;28;20307;-77
2022/10/28 23:12:04;;;;;;;17.08;7.78;;;;;15.50;101612.00;;;;10296939;28;20197;-77
2022/10/28 23:17:07;;;;;;;16.02;8.15;;;;;15.50;101612.00;;;;10310105;28;20191;-77
2022/10/28 23:22:09;;;;;;;16.98;7.45;;;;;15.50;101599.00;;;;10326197;28;20201;-77
2022/10/28 23:27:11;;;;;;;12.23;7.68;;;;;15.50;101604.00;;;;10260963;28;20208;-77
2022/10/28 23:32:12;;;;;;;18.02;8.27;;;;;15.50;101595.00;;;;10289335;28;20208;-77
2022/10/28 23:37:14;;;;;;;22.37;9.03;;;;;15.40;101580.00;;;;10319771;28;20206;-77
2022/10/28 23:42:16;;;;;;;18.20;8.35;;;;;15.40;101591.00;;;;10292635;28;20239;-77
2022/10/28 23:47:18;;;;;;;16.08;8.65;;;;;15.40;101589.00;;;;10297147;28;20291;-77
2022/10/28 23:52:20;;;;;;;15.40;8.65;;;;;15.30;101581.00;;;;10285188;28;20181;-77
2022/10/28 23:57:22;;;;;;;19.85;9.43;;;;;15.30;101583.00;;;;10318852;28;20204;-77
